PWSweather.com
Personal Weather Stations
Station Observations
CARNOUSTIE
Pambride, CarnoustieGB DD7 6DY

PambrideCarnoustieGB DD7 6DY

Lat: 56.50889, Lon: -2.7051

Elevation: 105

Station Type: Oregon Scientific WMR200

www.carnoustieweather.co.uk

High Low Average
Temperature 64.8°F18.2°F 44.2°F6.8°F 52.1°F11.2°F
Dew Point 51.8°F11.0°F 32.0°F0.0°F 37.1°F2.8°F
Winds 13.8 mph -22.2 mph - 5.8 mph 9.3 mph 9.3 mph 15.0 mph
Wind Gusts 17.3 mph27.8 mph 5.8 mph9.3 mph 11.9 mph19.2 mph
Humidity 75% 39% 57%
Pressure 29.62 in1003.00 in 29.50 in999.00 in -
Precipitation 0.00 in0.00 in - -
Hour Temp Dew Point Humidity Winds Wind Gusts Pressure Precip Precip Rate Daily Precip Total
12:00 AM 47.1°F8.4°C 32.7°F0.4°C 57% 8.1 mph NE13.0 kmh NE 9.2 mph14.8 kmh 29.59 in1002.0 mb - 0.00 in0.0 mm 0.00 in0.0 mm
12:10 AM 47.1°F8.4°C 33.1°F0.6°C 58% 8.1 mph NNE13.0 kmh NNE 11.5 mph18.5 kmh 29.59 in1002.0 mb - 0.00 in0.0 mm 0.00 in0.0 mm
12:15 AM 47.1°F8.4°C 33.1°F0.6°C 58% 9.2 mph NE14.8 kmh NE 11.5 mph18.5 kmh 29.62 in1003.0 mb - 0.00 in0.0 mm 0.00 in0.0 mm
12:20 AM 47.1°F8.4°C 33.1°F0.6°C 58% 8.1 mph NE13.0 kmh NE 9.2 mph14.8 kmh 29.62 in1003.0 mb - 0.00 in0.0 mm 0.00 in0.0 mm
12:25 AM 46.9°F8.3°C 32.9°F0.5°C 58% 8.1 mph NE13.0 kmh NE 10.4 mph16.7 kmh 29.62 in1003.0 mb - 0.00 in0.0 mm 0.00 in0.0 mm
12:30 AM 46.9°F8.3°C 32.9°F0.5°C 58% 6.9 mph NE11.1 kmh NE 8.1 mph13.0 kmh 29.62 in1003.0 mb - 0.00 in0.0 mm 0.00 in0.0 mm
12:35 AM 46.9°F8.3°C 32.9°F0.5°C 58% 6.9 mph NE11.1 kmh NE 9.2 mph14.8 kmh 29.62 in1003.0 mb - 0.00 in0.0 mm 0.00 in0.0 mm
12:40 AM 47.1°F8.4°C 33.5°F0.8°C 59% 9.2 mph NE14.8 kmh NE 11.5 mph18.5 kmh 29.62 in1003.0 mb - 0.00 in0.0 mm 0.00 in0.0 mm
12:45 AM 47.2°F8.4°C 33.6°F0.9°C 59% 9.2 mph NE14.8 kmh NE 11.5 mph18.5 kmh 29.59 in1002.0 mb - 0.00 in0.0 mm 0.00 in0.0 mm
12:50 AM 47.3°F8.5°C 34.1°F1.2°C 60% 10.4 mph NE16.7 kmh NE 12.7 mph20.4 kmh 29.59 in1002.0 mb - 0.00 in0.0 mm 0.00 in0.0 mm
12:55 AM 47.5°F8.6°C 34.3°F1.3°C 60% 8.1 mph NE13.0 kmh NE 8.1 mph13.0 kmh 29.59 in1002.0 mb - 0.00 in0.0 mm 0.00 in0.0 mm
01:00 AM 47.5°F8.6°C 34.3°F1.3°C 60% 6.9 mph NE11.1 kmh NE 8.1 mph13.0 kmh 29.62 in1003.0 mb - 0.00 in0.0 mm 0.00 in0.0 mm
01:10 AM 47.5°F8.6°C 34.3°F1.3°C 60% 5.8 mph NE9.3 kmh NE 10.4 mph16.7 kmh 29.62 in1003.0 mb - 0.00 in0.0 mm 0.00 in0.0 mm
01:15 AM 47.5°F8.6°C 34.3°F1.3°C 60% 8.1 mph NNE13.0 kmh NNE 9.2 mph14.8 kmh 29.62 in1003.0 mb - 0.00 in0.0 mm 0.00 in0.0 mm
01:20 AM 47.5°F8.6°C 34.3°F1.3°C 60% 9.2 mph NE14.8 kmh NE 11.5 mph18.5 kmh 29.62 in1003.0 mb - 0.00 in0.0 mm 0.00 in0.0 mm
01:25 AM 47.5°F8.6°C 34.3°F1.3°C 60% 5.8 mph NE9.3 kmh NE 9.2 mph14.8 kmh 29.62 in1003.0 mb - 0.00 in0.0 mm 0.00 in0.0 mm
01:30 AM 47.5°F8.6°C 34.3°F1.3°C 60% 8.1 mph NNE13.0 kmh NNE 11.5 mph18.5 kmh 29.62 in1003.0 mb - 0.00 in0.0 mm 0.00 in0.0 mm
01:35 AM 47.3°F8.5°C 34.1°F1.2°C 60% 8.1 mph NNE13.0 kmh NNE 9.2 mph14.8 kmh 29.62 in1003.0 mb - 0.00 in0.0 mm 0.00 in0.0 mm
01:40 AM 47.1°F8.4°C 33.9°F1.1°C 60% 9.2 mph NNE14.8 kmh NNE 11.5 mph18.5 kmh 29.62 in1003.0 mb - 0.00 in0.0 mm 0.00 in0.0 mm
01:45 AM 46.9°F8.3°C 33.8°F1.0°C 60% 6.9 mph NE11.1 kmh NE 10.4 mph16.7 kmh 29.62 in1003.0 mb - 0.00 in0.0 mm 0.00 in0.0 mm
01:50 AM 46.8°F8.2°C 33.6°F0.9°C 60% 8.1 mph NE13.0 kmh NE 9.2 mph14.8 kmh 29.62 in1003.0 mb - 0.00 in0.0 mm 0.00 in0.0 mm
01:55 AM 46.6°F8.1°C 33.4°F0.8°C 60% 8.1 mph NNE13.0 kmh NNE 10.4 mph16.7 kmh 29.62 in1003.0 mb - 0.00 in0.0 mm 0.00 in0.0 mm
02:00 AM 46.2°F7.9°C 33.5°F0.8°C 61% 8.1 mph NE13.0 kmh NE 10.4 mph16.7 kmh 29.62 in1003.0 mb - 0.00 in0.0 mm 0.00 in0.0 mm
02:10 AM 46.0°F7.8°C 33.3°F0.7°C 61% 8.1 mph NE13.0 kmh NE 11.5 mph18.5 kmh 29.62 in1003.0 mb - 0.00 in0.0 mm 0.00 in0.0 mm
02:15 AM 45.9°F7.7°C 33.2°F0.7°C 61% 8.1 mph NNE13.0 kmh NNE 12.7 mph20.4 kmh 29.62 in1003.0 mb - 0.00 in0.0 mm 0.00 in0.0 mm
02:20 AM 45.9°F7.7°C 33.2°F0.7°C 61% 8.1 mph NE13.0 kmh NE 10.4 mph16.7 kmh 29.62 in1003.0 mb - 0.00 in0.0 mm 0.00 in0.0 mm
02:25 AM 45.7°F7.6°C 33.5°F0.8°C 62% 6.9 mph NE11.1 kmh NE 8.1 mph13.0 kmh 29.62 in1003.0 mb - 0.00 in0.0 mm 0.00 in0.0 mm
02:30 AM 45.7°F7.6°C 33.4°F0.8°C 62% 6.9 mph NE11.1 kmh NE 8.1 mph13.0 kmh 29.59 in1002.0 mb - 0.00 in0.0 mm 0.00 in0.0 mm
02:35 AM 45.7°F7.6°C 33.4°F0.8°C 62% 9.2 mph NE14.8 kmh NE 10.4 mph16.7 kmh 29.59 in1002.0 mb - 0.00 in0.0 mm 0.00 in0.0 mm
02:40 AM 45.5°F7.5°C 33.2°F0.7°C 62% 9.2 mph NE14.8 kmh NE 11.5 mph18.5 kmh 29.59 in1002.0 mb - 0.00 in0.0 mm 0.00 in0.0 mm
02:45 AM 45.5°F7.5°C 33.2°F0.7°C 62% 8.1 mph NE13.0 kmh NE 11.5 mph18.5 kmh 29.59 in1002.0 mb - 0.00 in0.0 mm 0.00 in0.0 mm
02:50 AM 45.5°F7.5°C 33.2°F0.7°C 62% 10.4 mph NE16.7 kmh NE 13.8 mph22.2 kmh 29.59 in1002.0 mb - 0.00 in0.0 mm 0.00 in0.0 mm
02:55 AM 45.3°F7.4°C 33.1°F0.6°C 62% 9.2 mph NE14.8 kmh NE 11.5 mph18.5 kmh 29.59 in1002.0 mb - 0.00 in0.0 mm 0.00 in0.0 mm
03:00 AM 45.3°F7.4°C 33.5°F0.8°C 63% 8.1 mph NE13.0 kmh NE 11.5 mph18.5 kmh 29.59 in1002.0 mb - 0.00 in0.0 mm 0.00 in0.0 mm
03:10 AM 45.3°F7.4°C 33.5°F0.8°C 63% 6.9 mph NE11.1 kmh NE 9.2 mph14.8 kmh 29.59 in1002.0 mb - 0.00 in0.0 mm 0.00 in0.0 mm
03:15 AM 45.3°F7.4°C 33.5°F0.8°C 63% 8.1 mph NE13.0 kmh NE 9.2 mph14.8 kmh 29.59 in1002.0 mb - 0.00 in0.0 mm 0.00 in0.0 mm
03:20 AM 45.3°F7.4°C 33.5°F0.8°C 63% 6.9 mph NE11.1 kmh NE 8.1 mph13.0 kmh 29.59 in1002.0 mb - 0.00 in0.0 mm 0.00 in0.0 mm
03:25 AM 45.3°F7.4°C 33.5°F0.8°C 63% 9.2 mph NE14.8 kmh NE 9.2 mph14.8 kmh 29.59 in1002.0 mb - 0.00 in0.0 mm 0.00 in0.0 mm
03:30 AM 45.3°F7.4°C 33.5°F0.8°C 63% 9.2 mph NE14.8 kmh NE 10.4 mph16.7 kmh 29.59 in1002.0 mb - 0.00 in0.0 mm 0.00 in0.0 mm
03:35 AM 45.3°F7.4°C 33.5°F0.8°C 63% 9.2 mph NE14.8 kmh NE 12.7 mph20.4 kmh 29.59 in1002.0 mb - 0.00 in0.0 mm 0.00 in0.0 mm
03:40 AM 45.5°F7.5°C 34.0°F1.1°C 64% 8.1 mph NE13.0 kmh NE 10.4 mph16.7 kmh 29.59 in1002.0 mb - 0.00 in0.0 mm 0.00 in0.0 mm
03:45 AM 45.5°F7.5°C 34.0°F1.1°C 64% 6.9 mph NNE11.1 kmh NNE 11.5 mph18.5 kmh 29.59 in1002.0 mb - 0.00 in0.0 mm 0.00 in0.0 mm
03:50 AM 45.7°F7.6°C 34.2°F1.2°C 64% 9.2 mph NE14.8 kmh NE 11.5 mph18.5 kmh 29.59 in1002.0 mb - 0.00 in0.0 mm 0.00 in0.0 mm
03:55 AM 45.9°F7.7°C 34.4°F1.3°C 64% 11.5 mph NNE18.5 kmh NNE 13.8 mph22.2 kmh 29.59 in1002.0 mb - 0.00 in0.0 mm 0.00 in0.0 mm
04:00 AM 45.9°F7.7°C 34.4°F1.3°C 64% 10.4 mph NE16.7 kmh NE 13.8 mph22.2 kmh 29.59 in1002.0 mb - 0.00 in0.0 mm 0.00 in0.0 mm
04:10 AM 45.9°F7.7°C 34.4°F1.3°C 64% 9.2 mph NE14.8 kmh NE 11.5 mph18.5 kmh 29.59 in1002.0 mb - 0.00 in0.0 mm 0.00 in0.0 mm
04:15 AM 45.9°F7.7°C 34.4°F1.3°C 64% 9.2 mph NE14.8 kmh NE 11.5 mph18.5 kmh 29.59 in1002.0 mb - 0.00 in0.0 mm 0.00 in0.0 mm
04:20 AM 45.9°F7.7°C 34.4°F1.3°C 64% 8.1 mph NE13.0 kmh NE 11.5 mph18.5 kmh 29.59 in1002.0 mb - 0.00 in0.0 mm 0.00 in0.0 mm
04:25 AM 45.9°F7.7°C 34.4°F1.3°C 64% 9.2 mph NE14.8 kmh NE 10.4 mph16.7 kmh 29.59 in1002.0 mb - 0.00 in0.0 mm 0.00 in0.0 mm
04:30 AM 45.9°F7.7°C 34.4°F1.3°C 64% 9.2 mph NE14.8 kmh NE 10.4 mph16.7 kmh 29.59 in1002.0 mb - 0.00 in0.0 mm 0.00 in0.0 mm
04:35 AM 45.9°F7.7°C 34.4°F1.3°C 64% 9.2 mph NE14.8 kmh NE 13.8 mph22.2 kmh 29.59 in1002.0 mb - 0.00 in0.0 mm 0.00 in0.0 mm
04:40 AM 45.9°F7.7°C 34.4°F1.3°C 64% 10.4 mph NE16.7 kmh NE 12.7 mph20.4 kmh 29.59 in1002.0 mb - 0.00 in0.0 mm 0.00 in0.0 mm
04:45 AM 45.9°F7.7°C 34.4°F1.3°C 64% 5.8 mph NE9.3 kmh NE 8.1 mph13.0 kmh 29.59 in1002.0 mb - 0.00 in0.0 mm 0.00 in0.0 mm
04:50 AM 45.9°F7.7°C 34.4°F1.3°C 64% 9.2 mph NE14.8 kmh NE 13.8 mph22.2 kmh 29.59 in1002.0 mb - 0.00 in0.0 mm 0.00 in0.0 mm
04:55 AM 46.0°F7.8°C 34.9°F1.6°C 65% 12.7 mph NE20.4 kmh NE 15.0 mph24.1 kmh 29.59 in1002.0 mb - 0.00 in0.0 mm 0.00 in0.0 mm
05:00 AM 46.0°F7.8°C 34.9°F1.6°C 65% 9.2 mph NE14.8 kmh NE 11.5 mph18.5 kmh 29.59 in1002.0 mb - 0.00 in0.0 mm 0.00 in0.0 mm
05:10 AM 46.2°F7.9°C 35.1°F1.7°C 65% 5.8 mph NE9.3 kmh NE 13.8 mph22.2 kmh 29.59 in1002.0 mb - 0.00 in0.0 mm 0.00 in0.0 mm
05:15 AM 46.4°F8.0°C 34.9°F1.6°C 64% 10.4 mph NNE16.7 kmh NNE 11.5 mph18.5 kmh 29.59 in1002.0 mb - 0.00 in0.0 mm 0.00 in0.0 mm
05:20 AM 46.4°F8.0°C 34.9°F1.6°C 64% 6.9 mph NE11.1 kmh NE 9.2 mph14.8 kmh 29.59 in1002.0 mb - 0.00 in0.0 mm 0.00 in0.0 mm
05:25 AM 46.4°F8.0°C 34.9°F1.6°C 64% 6.9 mph NE11.1 kmh NE 12.7 mph20.4 kmh 29.59 in1002.0 mb - 0.00 in0.0 mm 0.00 in0.0 mm
05:30 AM 46.4°F8.0°C 34.9°F1.6°C 64% 10.4 mph ENE16.7 kmh ENE 12.7 mph20.4 kmh 29.59 in1002.0 mb - 0.00 in0.0 mm 0.00 in0.0 mm
05:35 AM 46.6°F8.1°C 35.0°F1.7°C 64% 11.5 mph NE18.5 kmh NE 11.5 mph18.5 kmh 29.59 in1002.0 mb - 0.00 in0.0 mm 0.00 in0.0 mm
05:40 AM 46.8°F8.2°C 35.6°F2.0°C 65% 12.7 mph NE20.4 kmh NE 13.8 mph22.2 kmh 29.59 in1002.0 mb - 0.00 in0.0 mm 0.00 in0.0 mm
05:45 AM 47.0°F8.3°C 35.8°F2.1°C 65% 11.5 mph NE18.5 kmh NE 13.8 mph22.2 kmh 29.59 in1002.0 mb - 0.00 in0.0 mm 0.00 in0.0 mm
05:50 AM 47.3°F8.5°C 36.1°F2.3°C 65% 9.2 mph NE14.8 kmh NE 11.5 mph18.5 kmh 29.59 in1002.0 mb - 0.00 in0.0 mm 0.00 in0.0 mm
05:55 AM 47.5°F8.6°C 36.3°F2.4°C 65% 10.4 mph NE16.7 kmh NE 13.8 mph22.2 kmh 29.59 in1002.0 mb - 0.00 in0.0 mm 0.00 in0.0 mm
06:00 AM 47.8°F8.8°C 36.6°F2.6°C 65% 10.4 mph NE16.7 kmh NE 12.7 mph20.4 kmh 29.59 in1002.0 mb - 0.00 in0.0 mm 0.00 in0.0 mm
06:10 AM 48.2°F9.0°C 36.6°F2.6°C 64% 10.4 mph NE16.7 kmh NE 13.8 mph22.2 kmh 29.59 in1002.0 mb - 0.00 in0.0 mm 0.00 in0.0 mm
06:15 AM 48.6°F9.2°C 36.9°F2.7°C 64% 10.4 mph NE16.7 kmh NE 13.8 mph22.2 kmh 29.59 in1002.0 mb - 0.00 in0.0 mm 0.00 in0.0 mm
06:20 AM 48.7°F9.3°C 37.1°F2.8°C 64% 11.5 mph NE18.5 kmh NE 15.0 mph24.1 kmh 29.59 in1002.0 mb - 0.00 in0.0 mm 0.00 in0.0 mm
06:25 AM 48.9°F9.4°C 37.3°F2.9°C 64% 6.9 mph NE11.1 kmh NE 10.4 mph16.7 kmh 29.59 in1002.0 mb - 0.00 in0.0 mm 0.00 in0.0 mm
06:30 AM 49.3°F9.6°C 37.6°F3.1°C 64% 9.2 mph NE14.8 kmh NE 11.5 mph18.5 kmh 29.59 in1002.0 mb - 0.00 in0.0 mm 0.00 in0.0 mm
06:35 AM 49.6°F9.8°C 37.9°F3.3°C 64% 6.9 mph NE11.1 kmh NE 9.2 mph14.8 kmh 29.59 in1002.0 mb - 0.00 in0.0 mm 0.00 in0.0 mm
06:40 AM 50.0°F10.0°C 38.3°F3.5°C 64% 8.1 mph NE13.0 kmh NE 11.5 mph18.5 kmh 29.59 in1002.0 mb - 0.00 in0.0 mm 0.00 in0.0 mm
06:45 AM 50.4°F10.2°C 38.6°F3.7°C 64% 8.1 mph NE13.0 kmh NE 9.2 mph14.8 kmh 29.59 in1002.0 mb - 0.00 in0.0 mm 0.00 in0.0 mm
06:50 AM 50.7°F10.4°C 38.6°F3.7°C 63% 9.2 mph NE14.8 kmh NE 10.4 mph16.7 kmh 29.59 in1002.0 mb - 0.00 in0.0 mm 0.00 in0.0 mm
06:55 AM 51.2°F10.7°C 39.0°F3.9°C 63% 9.2 mph NE14.8 kmh NE 11.5 mph18.5 kmh 29.59 in1002.0 mb - 0.00 in0.0 mm 0.00 in0.0 mm
07:00 AM 51.6°F10.9°C 39.4°F4.1°C 63% 6.9 mph NE11.1 kmh NE 10.4 mph16.7 kmh 29.59 in1002.0 mb - 0.00 in0.0 mm 0.00 in0.0 mm
07:10 AM 52.4°F11.3°C 39.8°F4.3°C 62% 9.2 mph NE14.8 kmh NE 11.5 mph18.5 kmh 29.59 in1002.0 mb - 0.00 in0.0 mm 0.00 in0.0 mm
07:15 AM 53.1°F11.7°C 40.0°F4.4°C 61% 10.4 mph NE16.7 kmh NE 13.8 mph22.2 kmh 29.59 in1002.0 mb - 0.00 in0.0 mm 0.00 in0.0 mm
07:20 AM 53.4°F11.9°C 40.3°F4.6°C 61% 9.2 mph NE14.8 kmh NE 12.7 mph20.4 kmh 29.59 in1002.0 mb - 0.00 in0.0 mm 0.00 in0.0 mm
07:25 AM 53.9°F12.2°C 40.3°F4.6°C 60% 9.2 mph ENE14.8 kmh ENE 12.7 mph20.4 kmh 29.59 in1002.0 mb - 0.00 in0.0 mm 0.00 in0.0 mm
07:30 AM 54.3°F12.4°C 40.3°F4.6°C 59% 11.5 mph NE18.5 kmh NE 13.8 mph22.2 kmh 29.59 in1002.0 mb - 0.00 in0.0 mm 0.00 in0.0 mm
07:35 AM 54.5°F12.5°C 39.6°F4.2°C 57% 9.2 mph NE14.8 kmh NE 11.5 mph18.5 kmh 29.59 in1002.0 mb - 0.00 in0.0 mm 0.00 in0.0 mm
07:40 AM 54.9°F12.7°C 39.5°F4.2°C 56% 9.2 mph ENE14.8 kmh ENE 10.4 mph16.7 kmh 29.59 in1002.0 mb - 0.00 in0.0 mm 0.00 in0.0 mm
07:45 AM 55.8°F13.2°C 40.3°F4.6°C 56% 8.1 mph ENE13.0 kmh ENE 11.5 mph18.5 kmh 29.59 in1002.0 mb - 0.00 in0.0 mm 0.00 in0.0 mm
07:50 AM 56.1°F13.4°C 40.2°F4.6°C 55% 9.2 mph NE14.8 kmh NE 12.7 mph20.4 kmh 29.59 in1002.0 mb - 0.00 in0.0 mm 0.00 in0.0 mm
07:55 AM 56.5°F13.6°C 40.0°F4.4°C 54% 10.4 mph NE16.7 kmh NE 13.8 mph22.2 kmh 29.59 in1002.0 mb - 0.00 in0.0 mm 0.00 in0.0 mm
08:00 AM 56.7°F13.7°C 39.7°F4.3°C 53% 10.4 mph NE16.7 kmh NE 13.8 mph22.2 kmh 29.59 in1002.0 mb - 0.00 in0.0 mm 0.00 in0.0 mm
08:10 AM 57.2°F14.0°C 39.2°F4.0°C 51% 11.5 mph ENE18.5 kmh ENE 13.8 mph22.2 kmh 29.59 in1002.0 mb - 0.00 in0.0 mm 0.00 in0.0 mm
08:15 AM 57.4°F14.1°C 38.9°F3.8°C 50% 10.4 mph NE16.7 kmh NE 13.8 mph22.2 kmh 29.59 in1002.0 mb - 0.00 in0.0 mm 0.00 in0.0 mm
08:20 AM 57.4°F14.1°C 38.9°F3.8°C 50% 12.7 mph ENE20.4 kmh ENE 13.8 mph22.2 kmh 29.59 in1002.0 mb - 0.00 in0.0 mm 0.00 in0.0 mm
08:25 AM 57.5°F14.2°C 38.4°F3.6°C 49% 8.1 mph NE13.0 kmh NE 13.8 mph22.2 kmh 29.59 in1002.0 mb - 0.00 in0.0 mm 0.00 in0.0 mm
08:30 AM 57.8°F14.3°C 38.7°F3.7°C 49% 10.4 mph ENE16.7 kmh ENE 13.8 mph22.2 kmh 29.59 in1002.0 mb - 0.00 in0.0 mm 0.00 in0.0 mm
08:35 AM 57.9°F14.4°C 38.9°F3.8°C 49% 12.7 mph E20.4 kmh E 16.1 mph25.9 kmh 29.59 in1002.0 mb - 0.00 in0.0 mm 0.00 in0.0 mm
08:40 AM 58.1°F14.5°C 39.0°F3.9°C 49% 11.5 mph ENE18.5 kmh ENE 13.8 mph22.2 kmh 29.59 in1002.0 mb - 0.00 in0.0 mm 0.00 in0.0 mm
08:45 AM 58.3°F14.6°C 38.7°F3.7°C 48% 12.7 mph E20.4 kmh E 15.0 mph24.1 kmh 29.59 in1002.0 mb - 0.00 in0.0 mm 0.00 in0.0 mm
08:50 AM 58.2°F14.6°C 38.6°F3.7°C 48% 11.5 mph E18.5 kmh E 12.7 mph20.4 kmh 29.59 in1002.0 mb - 0.00 in0.0 mm 0.00 in0.0 mm
08:55 AM 58.7°F14.8°C 39.0°F3.9°C 48% 12.7 mph E20.4 kmh E 15.0 mph24.1 kmh 29.59 in1002.0 mb - 0.00 in0.0 mm 0.00 in0.0 mm
09:00 AM 59.0°F15.0°C 38.8°F3.8°C 47% 10.4 mph E16.7 kmh E 13.8 mph22.2 kmh 29.59 in1002.0 mb - 0.00 in0.0 mm 0.00 in0.0 mm
09:10 AM 59.6°F15.3°C 38.8°F3.8°C 46% 12.7 mph E20.4 kmh E 15.0 mph24.1 kmh 29.59 in1002.0 mb - 0.00 in0.0 mm 0.00 in0.0 mm
09:15 AM 59.7°F15.4°C 38.3°F3.5°C 45% 11.5 mph E18.5 kmh E 13.8 mph22.2 kmh 29.59 in1002.0 mb - 0.00 in0.0 mm 0.00 in0.0 mm
09:20 AM 60.2°F15.7°C 38.8°F3.8°C 45% 11.5 mph ESE18.5 kmh ESE 15.0 mph24.1 kmh 29.59 in1002.0 mb - 0.00 in0.0 mm 0.00 in0.0 mm
09:25 AM 60.4°F15.8°C 39.0°F3.9°C 45% 13.8 mph ENE22.2 kmh ENE 16.1 mph25.9 kmh 29.59 in1002.0 mb - 0.00 in0.0 mm 0.00 in0.0 mm
09:30 AM 59.9°F15.5°C 38.5°F3.6°C 45% 11.5 mph ENE18.5 kmh ENE 13.8 mph22.2 kmh 29.59 in1002.0 mb - 0.00 in0.0 mm 0.00 in0.0 mm
09:35 AM 60.6°F15.9°C 39.1°F3.9°C 45% 10.4 mph E16.7 kmh E 15.0 mph24.1 kmh 29.59 in1002.0 mb - 0.00 in0.0 mm 0.00 in0.0 mm
09:40 AM 59.7°F15.4°C 37.8°F3.2°C 44% 11.5 mph E18.5 kmh E 15.0 mph24.1 kmh 29.59 in1002.0 mb - 0.00 in0.0 mm 0.00 in0.0 mm
09:45 AM 59.7°F15.4°C 37.8°F3.2°C 44% 10.4 mph ENE16.7 kmh ENE 13.8 mph22.2 kmh 29.59 in1002.0 mb - 0.00 in0.0 mm 0.00 in0.0 mm
09:50 AM 59.7°F15.4°C 37.8°F3.2°C 44% 10.4 mph E16.7 kmh E 11.5 mph18.5 kmh 29.59 in1002.0 mb - 0.00 in0.0 mm 0.00 in0.0 mm
09:55 AM 60.1°F15.6°C 38.1°F3.4°C 44% 10.4 mph ENE16.7 kmh ENE 12.7 mph20.4 kmh 29.59 in1002.0 mb - 0.00 in0.0 mm 0.00 in0.0 mm
10:00 AM 60.1°F15.6°C 38.1°F3.4°C 44% 10.4 mph ENE16.7 kmh ENE 12.7 mph20.4 kmh 29.59 in1002.0 mb - 0.00 in0.0 mm 0.00 in0.0 mm
10:10 AM 60.4°F15.8°C 38.4°F3.6°C 44% 10.4 mph E16.7 kmh E 13.8 mph22.2 kmh 29.59 in1002.0 mb - 0.00 in0.0 mm 0.00 in0.0 mm
10:15 AM 60.4°F15.8°C 38.4°F3.6°C 44% 10.4 mph E16.7 kmh E 12.7 mph20.4 kmh 29.59 in1002.0 mb - 0.00 in0.0 mm 0.00 in0.0 mm
10:20 AM 59.7°F15.4°C 39.4°F4.1°C 47% 9.2 mph E14.8 kmh E 12.7 mph20.4 kmh 29.59 in1002.0 mb - 0.00 in0.0 mm 0.00 in0.0 mm
10:25 AM 59.8°F15.4°C 37.9°F3.3°C 44% 13.8 mph E22.2 kmh E 16.1 mph25.9 kmh 29.59 in1002.0 mb - 0.00 in0.0 mm 0.00 in0.0 mm
10:30 AM 59.4°F15.2°C 42.2°F5.7°C 53% 12.7 mph E20.4 kmh E 16.1 mph25.9 kmh 29.59 in1002.0 mb - 0.00 in0.0 mm 0.00 in0.0 mm
10:35 AM 59.2°F15.1°C 43.5°F6.4°C 56% 13.8 mph E22.2 kmh E 17.3 mph27.8 kmh 29.59 in1002.0 mb - 0.00 in0.0 mm 0.00 in0.0 mm
10:40 AM 58.5°F14.7°C 45.1°F7.3°C 61% 11.5 mph ENE18.5 kmh ENE 13.8 mph22.2 kmh 29.59 in1002.0 mb - 0.00 in0.0 mm 0.00 in0.0 mm
10:45 AM 58.3°F14.6°C 44.0°F6.7°C 59% 9.2 mph E14.8 kmh E 10.4 mph16.7 kmh 29.59 in1002.0 mb - 0.00 in0.0 mm 0.00 in0.0 mm
10:50 AM 58.5°F14.7°C 43.7°F6.5°C 58% 10.4 mph ENE16.7 kmh ENE 16.1 mph25.9 kmh 29.59 in1002.0 mb - 0.00 in0.0 mm 0.00 in0.0 mm
10:55 AM 58.4°F14.7°C 36.6°F2.6°C 44% 10.4 mph NE16.7 kmh NE 13.8 mph22.2 kmh 29.59 in1002.0 mb - 0.00 in0.0 mm 0.00 in0.0 mm
11:00 AM 58.4°F14.7°C 36.6°F2.6°C 44% 9.2 mph ENE14.8 kmh ENE 13.8 mph22.2 kmh 29.59 in1002.0 mb - 0.00 in0.0 mm 0.00 in0.0 mm
11:10 AM 59.0°F15.0°C 46.8°F8.2°C 64% 12.7 mph ENE20.4 kmh ENE 15.0 mph24.1 kmh 29.59 in1002.0 mb - 0.00 in0.0 mm 0.00 in0.0 mm
11:15 AM 59.3°F15.2°C 40.7°F4.8°C 50% 12.7 mph NE20.4 kmh NE 16.1 mph25.9 kmh 29.59 in1002.0 mb - 0.00 in0.0 mm 0.00 in0.0 mm
11:20 AM 59.6°F15.3°C 44.8°F7.1°C 58% 10.4 mph E16.7 kmh E 12.7 mph20.4 kmh 29.59 in1002.0 mb - 0.00 in0.0 mm 0.00 in0.0 mm
11:25 AM 59.7°F15.4°C 46.7°F8.2°C 62% 10.4 mph E16.7 kmh E 13.8 mph22.2 kmh 29.59 in1002.0 mb - 0.00 in0.0 mm 0.00 in0.0 mm
11:30 AM 60.2°F15.7°C 46.3°F7.9°C 60% 11.5 mph ENE18.5 kmh ENE 15.0 mph24.1 kmh 29.59 in1002.0 mb - 0.00 in0.0 mm 0.00 in0.0 mm
11:35 AM 60.6°F15.9°C 43.9°F6.6°C 54% 10.4 mph E16.7 kmh E 11.5 mph18.5 kmh 29.59 in1002.0 mb - 0.00 in0.0 mm 0.00 in0.0 mm
11:40 AM 61.7°F16.5°C 46.3°F7.9°C 57% 11.5 mph E18.5 kmh E 13.8 mph22.2 kmh 29.59 in1002.0 mb - 0.00 in0.0 mm 0.00 in0.0 mm
11:45 AM 61.9°F16.6°C 38.5°F3.6°C 42% 12.7 mph ENE20.4 kmh ENE 17.3 mph27.8 kmh 29.59 in1002.0 mb - 0.00 in0.0 mm 0.00 in0.0 mm
11:50 AM 61.1°F16.2°C 44.8°F7.1°C 55% 10.4 mph ENE16.7 kmh ENE 17.3 mph27.8 kmh 29.59 in1002.0 mb - 0.00 in0.0 mm 0.00 in0.0 mm
11:55 AM 60.6°F15.9°C 42.4°F5.8°C 51% 11.5 mph NE18.5 kmh NE 13.8 mph22.2 kmh 29.59 in1002.0 mb - 0.00 in0.0 mm 0.00 in0.0 mm
12:00 PM 59.9°F15.5°C 40.1°F4.5°C 48% 11.5 mph ENE18.5 kmh ENE 13.8 mph22.2 kmh 29.59 in1002.0 mb - 0.00 in0.0 mm 0.00 in0.0 mm
12:10 PM 59.3°F15.2°C 41.7°F5.4°C 52% 11.5 mph ENE18.5 kmh ENE 16.1 mph25.9 kmh 29.59 in1002.0 mb - 0.00 in0.0 mm 0.00 in0.0 mm
12:15 PM 59.4°F15.2°C 44.1°F6.7°C 57% 11.5 mph E18.5 kmh E 13.8 mph22.2 kmh 29.59 in1002.0 mb - 0.00 in0.0 mm 0.00 in0.0 mm
12:20 PM 59.4°F15.2°C 43.7°F6.5°C 56% 11.5 mph E18.5 kmh E 13.8 mph22.2 kmh 29.59 in1002.0 mb - 0.00 in0.0 mm 0.00 in0.0 mm
12:25 PM 59.7°F15.4°C 44.5°F6.9°C 57% 10.4 mph NE16.7 kmh NE 13.8 mph22.2 kmh 29.59 in1002.0 mb - 0.00 in0.0 mm 0.00 in0.0 mm
12:30 PM 59.7°F15.4°C 45.4°F7.4°C 59% 13.8 mph E22.2 kmh E 16.1 mph25.9 kmh 29.59 in1002.0 mb - 0.00 in0.0 mm 0.00 in0.0 mm
12:35 PM 59.7°F15.4°C 45.8°F7.7°C 60% 10.4 mph ENE16.7 kmh ENE 13.8 mph22.2 kmh 29.59 in1002.0 mb - 0.00 in0.0 mm 0.00 in0.0 mm
12:40 PM 59.7°F15.4°C 44.5°F6.9°C 57% 9.2 mph E14.8 kmh E 13.8 mph22.2 kmh 29.59 in1002.0 mb - 0.00 in0.0 mm 0.00 in0.0 mm
12:45 PM 60.1°F15.6°C 44.3°F6.8°C 56% 10.4 mph ENE16.7 kmh ENE 12.7 mph20.4 kmh 29.59 in1002.0 mb - 0.00 in0.0 mm 0.00 in0.0 mm
12:50 PM 59.8°F15.4°C 45.0°F7.2°C 58% 11.5 mph ENE18.5 kmh ENE 16.1 mph25.9 kmh 29.59 in1002.0 mb - 0.00 in0.0 mm 0.00 in0.0 mm
12:55 PM 60.3°F15.7°C 46.3°F7.9°C 60% 11.5 mph E18.5 kmh E 16.1 mph25.9 kmh 29.59 in1002.0 mb - 0.00 in0.0 mm 0.00 in0.0 mm
01:00 PM 60.1°F15.6°C 43.4°F6.3°C 54% 11.5 mph E18.5 kmh E 16.1 mph25.9 kmh 29.59 in1002.0 mb - 0.00 in0.0 mm 0.00 in0.0 mm
01:10 PM 60.3°F15.7°C 45.4°F7.4°C 58% 11.5 mph ENE18.5 kmh ENE 13.8 mph22.2 kmh 29.59 in1002.0 mb - 0.00 in0.0 mm 0.00 in0.0 mm
01:15 PM 60.8°F16.0°C 45.5°F7.5°C 57% 10.4 mph ENE16.7 kmh ENE 12.7 mph20.4 kmh 29.59 in1002.0 mb - 0.00 in0.0 mm 0.00 in0.0 mm
01:20 PM 60.5°F15.8°C 43.8°F6.6°C 54% 11.5 mph E18.5 kmh E 13.8 mph22.2 kmh 29.59 in1002.0 mb - 0.00 in0.0 mm 0.00 in0.0 mm
01:25 PM 60.8°F16.0°C 39.3°F4.1°C 45% 11.5 mph E18.5 kmh E 16.1 mph25.9 kmh 29.59 in1002.0 mb - 0.00 in0.0 mm 0.00 in0.0 mm
01:30 PM 61.8°F16.6°C 46.8°F8.2°C 58% 10.4 mph NE16.7 kmh NE 13.8 mph22.2 kmh 29.59 in1002.0 mb - 0.00 in0.0 mm 0.00 in0.0 mm
01:35 PM 61.5°F16.4°C 49.6°F9.8°C 65% 10.4 mph E16.7 kmh E 13.8 mph22.2 kmh 29.59 in1002.0 mb - 0.00 in0.0 mm 0.00 in0.0 mm
01:40 PM 62.3°F16.8°C 50.7°F10.4°C 66% 10.4 mph ENE16.7 kmh ENE 11.5 mph18.5 kmh 29.59 in1002.0 mb - 0.00 in0.0 mm 0.00 in0.0 mm
01:45 PM 63.1°F17.3°C 50.8°F10.4°C 64% 12.7 mph E20.4 kmh E 15.0 mph24.1 kmh 29.59 in1002.0 mb - 0.00 in0.0 mm 0.00 in0.0 mm
01:50 PM 62.8°F17.1°C 50.0°F10.0°C 63% 11.5 mph E18.5 kmh E 15.0 mph24.1 kmh 29.59 in1002.0 mb - 0.00 in0.0 mm 0.00 in0.0 mm
01:55 PM 63.3°F17.4°C 47.3°F8.5°C 56% 10.4 mph NE16.7 kmh NE 13.8 mph22.2 kmh 29.59 in1002.0 mb - 0.00 in0.0 mm 0.00 in0.0 mm
02:00 PM 64.3°F17.9°C 51.8°F11.0°C 64% 11.5 mph ENE18.5 kmh ENE 13.8 mph22.2 kmh 29.56 in1001.0 mb - 0.00 in0.0 mm 0.00 in0.0 mm
02:10 PM 64.8°F18.2°C 51.0°F10.6°C 61% 10.4 mph ENE16.7 kmh ENE 13.8 mph22.2 kmh 29.56 in1001.0 mb - 0.00 in0.0 mm 0.00 in0.0 mm
02:15 PM 64.0°F17.8°C 49.3°F9.6°C 59% 12.7 mph ENE20.4 kmh ENE 16.1 mph25.9 kmh 29.56 in1001.0 mb - 0.00 in0.0 mm 0.00 in0.0 mm
02:20 PM 63.9°F17.7°C 50.1°F10.1°C 61% 10.4 mph ENE16.7 kmh ENE 13.8 mph22.2 kmh 29.56 in1001.0 mb - 0.00 in0.0 mm 0.00 in0.0 mm
02:25 PM 63.3°F17.4°C 50.1°F10.1°C 62% 10.4 mph E16.7 kmh E 12.7 mph20.4 kmh 29.56 in1001.0 mb - 0.00 in0.0 mm 0.00 in0.0 mm
02:30 PM 62.4°F16.9°C 49.7°F9.8°C 63% 12.7 mph E20.4 kmh E 17.3 mph27.8 kmh 29.56 in1001.0 mb - 0.00 in0.0 mm 0.00 in0.0 mm
02:35 PM 61.3°F16.3°C 48.2°F9.0°C 62% 9.2 mph ENE14.8 kmh ENE 12.7 mph20.4 kmh 29.56 in1001.0 mb - 0.00 in0.0 mm 0.00 in0.0 mm
02:40 PM 61.0°F16.1°C 48.7°F9.3°C 64% 9.2 mph E14.8 kmh E 10.4 mph16.7 kmh 29.56 in1001.0 mb - 0.00 in0.0 mm 0.00 in0.0 mm
02:45 PM 60.9°F16.1°C 45.1°F7.3°C 56% 8.1 mph E13.0 kmh E 10.4 mph16.7 kmh 29.56 in1001.0 mb - 0.00 in0.0 mm 0.00 in0.0 mm
02:50 PM 60.9°F16.1°C 49.1°F9.5°C 65% 13.8 mph NE22.2 kmh NE 16.1 mph25.9 kmh 29.56 in1001.0 mb - 0.00 in0.0 mm 0.00 in0.0 mm
02:55 PM 60.1°F15.6°C 48.7°F9.3°C 66% 12.7 mph E20.4 kmh E 16.1 mph25.9 kmh 29.56 in1001.0 mb - 0.00 in0.0 mm 0.00 in0.0 mm
03:00 PM 59.9°F15.5°C 48.9°F9.4°C 67% 11.5 mph NE18.5 kmh NE 13.8 mph22.2 kmh 29.56 in1001.0 mb - 0.00 in0.0 mm 0.00 in0.0 mm
03:10 PM 61.6°F16.4°C 50.1°F10.1°C 66% 11.5 mph ENE18.5 kmh ENE 12.7 mph20.4 kmh 29.56 in1001.0 mb - 0.00 in0.0 mm 0.00 in0.0 mm
03:15 PM 61.2°F16.2°C 48.5°F9.2°C 63% 9.2 mph E14.8 kmh E 11.5 mph18.5 kmh 29.56 in1001.0 mb - 0.00 in0.0 mm 0.00 in0.0 mm
03:20 PM 60.1°F15.6°C 42.9°F6.1°C 53% 10.4 mph E16.7 kmh E 12.7 mph20.4 kmh 29.56 in1001.0 mb - 0.00 in0.0 mm 0.00 in0.0 mm
03:25 PM 59.7°F15.4°C 46.2°F7.9°C 61% 9.2 mph NE14.8 kmh NE 13.8 mph22.2 kmh 29.56 in1001.0 mb - 0.00 in0.0 mm 0.00 in0.0 mm
03:30 PM 59.4°F15.2°C 34.4°F1.3°C 39% 9.2 mph NE14.8 kmh NE 12.7 mph20.4 kmh 29.56 in1001.0 mb - 0.00 in0.0 mm 0.00 in0.0 mm
03:35 PM 59.5°F15.3°C 34.5°F1.4°C 39% 10.4 mph E16.7 kmh E 16.1 mph25.9 kmh 29.56 in1001.0 mb - 0.00 in0.0 mm 0.00 in0.0 mm
03:40 PM 58.9°F14.9°C 33.9°F1.1°C 39% 10.4 mph ENE16.7 kmh ENE 13.8 mph22.2 kmh 29.56 in1001.0 mb - 0.00 in0.0 mm 0.00 in0.0 mm
03:45 PM 57.5°F14.2°C 32.7°F0.4°C 39% 10.4 mph ENE16.7 kmh ENE 12.7 mph20.4 kmh 29.56 in1001.0 mb - 0.00 in0.0 mm 0.00 in0.0 mm
03:50 PM 57.0°F13.9°C 32.9°F0.5°C 40% 8.1 mph E13.0 kmh E 12.7 mph20.4 kmh 29.56 in1001.0 mb - 0.00 in0.0 mm 0.00 in0.0 mm
03:55 PM 56.8°F13.8°C 33.4°F0.8°C 41% 8.1 mph E13.0 kmh E 11.5 mph18.5 kmh 29.56 in1001.0 mb - 0.00 in0.0 mm 0.00 in0.0 mm
04:00 PM 57.7°F14.3°C 34.7°F1.5°C 42% 8.1 mph E13.0 kmh E 13.8 mph22.2 kmh 29.53 in1000.0 mb - 0.00 in0.0 mm 0.00 in0.0 mm
04:10 PM 57.0°F13.9°C 36.4°F2.4°C 46% 10.4 mph ENE16.7 kmh ENE 13.8 mph22.2 kmh 29.53 in1000.0 mb - 0.00 in0.0 mm 0.00 in0.0 mm
04:15 PM 56.6°F13.7°C 34.3°F1.3°C 43% 11.5 mph NE18.5 kmh NE 16.1 mph25.9 kmh 29.56 in1001.0 mb - 0.00 in0.0 mm 0.00 in0.0 mm
04:20 PM 56.3°F13.5°C 34.6°F1.4°C 44% 11.5 mph ENE18.5 kmh ENE 13.8 mph22.2 kmh 29.56 in1001.0 mb - 0.00 in0.0 mm 0.00 in0.0 mm
04:25 PM 56.1°F13.4°C 34.5°F1.4°C 44% 8.1 mph NE13.0 kmh NE 12.7 mph20.4 kmh 29.56 in1001.0 mb - 0.00 in0.0 mm 0.00 in0.0 mm
04:30 PM 55.3°F12.9°C 34.3°F1.3°C 45% 11.5 mph NE18.5 kmh NE 13.8 mph22.2 kmh 29.56 in1001.0 mb - 0.00 in0.0 mm 0.00 in0.0 mm
04:35 PM 54.5°F12.5°C 33.6°F0.9°C 45% 12.7 mph ENE20.4 kmh ENE 13.8 mph22.2 kmh 29.56 in1001.0 mb - 0.00 in0.0 mm 0.00 in0.0 mm
04:40 PM 53.6°F12.0°C 33.3°F0.7°C 46% 11.5 mph ENE18.5 kmh ENE 15.0 mph24.1 kmh 29.56 in1001.0 mb - 0.00 in0.0 mm 0.00 in0.0 mm
04:45 PM 52.9°F11.6°C 32.6°F0.3°C 46% 8.1 mph E13.0 kmh E 9.2 mph14.8 kmh 29.56 in1001.0 mb - 0.00 in0.0 mm 0.00 in0.0 mm
04:50 PM 52.5°F11.4°C 32.8°F0.4°C 47% 9.2 mph ENE14.8 kmh ENE 12.7 mph20.4 kmh 29.56 in1001.0 mb - 0.00 in0.0 mm 0.00 in0.0 mm
04:55 PM 52.0°F11.1°C 32.9°F0.5°C 48% 10.4 mph NE16.7 kmh NE 13.8 mph22.2 kmh 29.56 in1001.0 mb - 0.00 in0.0 mm 0.00 in0.0 mm
05:00 PM 51.7°F10.9°C 32.7°F0.4°C 48% 11.5 mph E18.5 kmh E 12.7 mph20.4 kmh 29.56 in1001.0 mb - 0.00 in0.0 mm 0.00 in0.0 mm
05:10 PM 51.6°F10.9°C 33.6°F0.9°C 50% 9.2 mph E14.8 kmh E 12.7 mph20.4 kmh 29.56 in1001.0 mb - 0.00 in0.0 mm 0.00 in0.0 mm
05:15 PM 52.2°F11.2°C 34.1°F1.2°C 50% 8.1 mph NE13.0 kmh NE 9.2 mph14.8 kmh 29.56 in1001.0 mb - 0.00 in0.0 mm 0.00 in0.0 mm
05:20 PM 52.9°F11.6°C 35.2°F1.8°C 51% 9.2 mph ENE14.8 kmh ENE 12.7 mph20.4 kmh 29.56 in1001.0 mb - 0.00 in0.0 mm 0.00 in0.0 mm
05:25 PM 53.4°F11.9°C 36.2°F2.3°C 52% 8.1 mph ENE13.0 kmh ENE 9.2 mph14.8 kmh 29.56 in1001.0 mb - 0.00 in0.0 mm 0.00 in0.0 mm
05:30 PM 53.4°F11.9°C 35.7°F2.1°C 51% 10.4 mph ENE16.7 kmh ENE 11.5 mph18.5 kmh 29.56 in1001.0 mb - 0.00 in0.0 mm 0.00 in0.0 mm
05:35 PM 53.1°F11.7°C 34.9°F1.6°C 50% 8.1 mph NE13.0 kmh NE 8.1 mph13.0 kmh 29.56 in1001.0 mb - 0.00 in0.0 mm 0.00 in0.0 mm
05:40 PM 53.4°F11.9°C 35.2°F1.8°C 50% 6.9 mph E11.1 kmh E 8.1 mph13.0 kmh 29.56 in1001.0 mb - 0.00 in0.0 mm 0.00 in0.0 mm
05:45 PM 53.8°F12.1°C 35.6°F2.0°C 50% 6.9 mph ENE11.1 kmh ENE 8.1 mph13.0 kmh 29.56 in1001.0 mb - 0.00 in0.0 mm 0.00 in0.0 mm
05:50 PM 53.4°F11.9°C 35.2°F1.8°C 50% 10.4 mph E16.7 kmh E 11.5 mph18.5 kmh 29.56 in1001.0 mb - 0.00 in0.0 mm 0.00 in0.0 mm
05:55 PM 53.1°F11.7°C 34.9°F1.6°C 50% 9.2 mph ENE14.8 kmh ENE 11.5 mph18.5 kmh 29.56 in1001.0 mb - 0.00 in0.0 mm 0.00 in0.0 mm
06:00 PM 52.5°F11.4°C 34.3°F1.3°C 50% 8.1 mph E13.0 kmh E 11.5 mph18.5 kmh 29.56 in1001.0 mb - 0.00 in0.0 mm 0.00 in0.0 mm
06:10 PM 51.4°F10.8°C 43.8°F6.6°C 75% 8.1 mph ENE13.0 kmh ENE 11.5 mph18.5 kmh 29.56 in1001.0 mb - 0.00 in0.0 mm 0.00 in0.0 mm
06:15 PM 51.0°F10.6°C 33.5°F0.8°C 51% 9.2 mph ENE14.8 kmh ENE 9.2 mph14.8 kmh 29.56 in1001.0 mb - 0.00 in0.0 mm 0.00 in0.0 mm
06:20 PM 50.7°F10.4°C 33.2°F0.7°C 51% 8.1 mph ENE13.0 kmh ENE 10.4 mph16.7 kmh 29.56 in1001.0 mb - 0.00 in0.0 mm 0.00 in0.0 mm
06:25 PM 50.4°F10.2°C 33.4°F0.8°C 52% 9.2 mph E14.8 kmh E 11.5 mph18.5 kmh 29.56 in1001.0 mb - 0.00 in0.0 mm 0.00 in0.0 mm
06:30 PM 50.2°F10.1°C 33.2°F0.7°C 52% 6.9 mph ENE11.1 kmh ENE 9.2 mph14.8 kmh 29.56 in1001.0 mb - 0.00 in0.0 mm 0.00 in0.0 mm
06:35 PM 49.8°F9.9°C 33.4°F0.8°C 53% 9.2 mph ENE14.8 kmh ENE 13.8 mph22.2 kmh 29.56 in1001.0 mb - 0.00 in0.0 mm 0.00 in0.0 mm
06:40 PM 49.6°F9.8°C 33.2°F0.7°C 53% 8.1 mph NE13.0 kmh NE 9.2 mph14.8 kmh 29.56 in1001.0 mb - 0.00 in0.0 mm 0.00 in0.0 mm
06:45 PM 49.3°F9.6°C 32.9°F0.5°C 53% 8.1 mph NE13.0 kmh NE 9.2 mph14.8 kmh 29.53 in1000.0 mb - 0.00 in0.0 mm 0.00 in0.0 mm
06:50 PM 49.1°F9.5°C 33.2°F0.7°C 54% 8.1 mph E13.0 kmh E 10.4 mph16.7 kmh 29.53 in1000.0 mb - 0.00 in0.0 mm 0.00 in0.0 mm
06:55 PM 48.9°F9.4°C 33.0°F0.6°C 54% 8.1 mph NE13.0 kmh NE 11.5 mph18.5 kmh 29.53 in1000.0 mb - 0.00 in0.0 mm 0.00 in0.0 mm
07:00 PM 48.7°F9.3°C 32.8°F0.4°C 54% 9.2 mph E14.8 kmh E 11.5 mph18.5 kmh 29.53 in1000.0 mb - 0.00 in0.0 mm 0.00 in0.0 mm
07:10 PM 48.2°F9.0°C 32.8°F0.4°C 55% 9.2 mph ENE14.8 kmh ENE 11.5 mph18.5 kmh 29.53 in1000.0 mb - 0.00 in0.0 mm 0.00 in0.0 mm
07:15 PM 48.0°F8.9°C 33.1°F0.6°C 56% 9.2 mph ENE14.8 kmh ENE 11.5 mph18.5 kmh 29.56 in1001.0 mb - 0.00 in0.0 mm 0.00 in0.0 mm
07:20 PM 47.8°F8.8°C 32.9°F0.5°C 56% 9.2 mph ENE14.8 kmh ENE 11.5 mph18.5 kmh 29.56 in1001.0 mb - 0.00 in0.0 mm 0.00 in0.0 mm
07:25 PM 47.7°F8.7°C 32.7°F0.4°C 56% 9.2 mph ENE14.8 kmh ENE 9.2 mph14.8 kmh 29.56 in1001.0 mb - 0.00 in0.0 mm 0.00 in0.0 mm
07:30 PM 47.5°F8.6°C 33.0°F0.6°C 57% 10.4 mph E16.7 kmh E 12.7 mph20.4 kmh 29.56 in1001.0 mb - 0.00 in0.0 mm 0.00 in0.0 mm
07:35 PM 47.3°F8.5°C 32.9°F0.5°C 57% 9.2 mph E14.8 kmh E 13.8 mph22.2 kmh 29.56 in1001.0 mb - 0.00 in0.0 mm 0.00 in0.0 mm
07:40 PM 47.3°F8.5°C 33.3°F0.7°C 58% 8.1 mph ENE13.0 kmh ENE 10.4 mph16.7 kmh 29.56 in1001.0 mb - 0.00 in0.0 mm 0.00 in0.0 mm
07:45 PM 47.3°F8.5°C 33.3°F0.7°C 58% 9.2 mph NE14.8 kmh NE 12.7 mph20.4 kmh 29.56 in1001.0 mb - 0.00 in0.0 mm 0.00 in0.0 mm
07:50 PM 47.1°F8.4°C 33.1°F0.6°C 58% 6.9 mph NE11.1 kmh NE 10.4 mph16.7 kmh 29.56 in1001.0 mb - 0.00 in0.0 mm 0.00 in0.0 mm
07:55 PM 47.1°F8.4°C 33.1°F0.6°C 58% 8.1 mph NE13.0 kmh NE 9.2 mph14.8 kmh 29.56 in1001.0 mb - 0.00 in0.0 mm 0.00 in0.0 mm
08:00 PM 46.9°F8.3°C 32.9°F0.5°C 58% 8.1 mph ENE13.0 kmh ENE 9.2 mph14.8 kmh 29.56 in1001.0 mb - 0.00 in0.0 mm 0.00 in0.0 mm
08:10 PM 46.8°F8.2°C 33.2°F0.7°C 59% 8.1 mph NE13.0 kmh NE 11.5 mph18.5 kmh 29.56 in1001.0 mb - 0.00 in0.0 mm 0.00 in0.0 mm
08:15 PM 46.8°F8.2°C 33.2°F0.7°C 59% 8.1 mph NE13.0 kmh NE 9.2 mph14.8 kmh 29.53 in1000.0 mb - 0.00 in0.0 mm 0.00 in0.0 mm
08:20 PM 46.8°F8.2°C 33.2°F0.7°C 59% 6.9 mph NE11.1 kmh NE 9.2 mph14.8 kmh 29.53 in1000.0 mb - 0.00 in0.0 mm 0.00 in0.0 mm
08:25 PM 46.8°F8.2°C 33.6°F0.9°C 60% 5.8 mph NE9.3 kmh NE 6.9 mph11.1 kmh 29.53 in1000.0 mb - 0.00 in0.0 mm 0.00 in0.0 mm
08:30 PM 46.8°F8.2°C 33.6°F0.9°C 60% 8.1 mph NE13.0 kmh NE 9.2 mph14.8 kmh 29.53 in1000.0 mb - 0.00 in0.0 mm 0.00 in0.0 mm
08:35 PM 46.8°F8.2°C 33.6°F0.9°C 60% 8.1 mph NE13.0 kmh NE 8.1 mph13.0 kmh 29.53 in1000.0 mb - 0.00 in0.0 mm 0.00 in0.0 mm
08:40 PM 46.6°F8.1°C 33.4°F0.8°C 60% 8.1 mph NE13.0 kmh NE 9.2 mph14.8 kmh 29.53 in1000.0 mb - 0.00 in0.0 mm 0.00 in0.0 mm
08:45 PM 46.6°F8.1°C 33.4°F0.8°C 60% 8.1 mph NE13.0 kmh NE 8.1 mph13.0 kmh 29.53 in1000.0 mb - 0.00 in0.0 mm 0.00 in0.0 mm
08:50 PM 46.4°F8.0°C 33.3°F0.7°C 60% 8.1 mph NE13.0 kmh NE 10.4 mph16.7 kmh 29.53 in1000.0 mb - 0.00 in0.0 mm 0.00 in0.0 mm
08:55 PM 46.4°F8.0°C 33.3°F0.7°C 60% 6.9 mph NE11.1 kmh NE 9.2 mph14.8 kmh 29.53 in1000.0 mb - 0.00 in0.0 mm 0.00 in0.0 mm
09:00 PM 46.4°F8.0°C 33.3°F0.7°C 60% 8.1 mph NE13.0 kmh NE 10.4 mph16.7 kmh 29.56 in1001.0 mb - 0.00 in0.0 mm 0.00 in0.0 mm
09:10 PM 46.2°F7.9°C 33.5°F0.8°C 61% 9.2 mph NE14.8 kmh NE 11.5 mph18.5 kmh 29.56 in1001.0 mb - 0.00 in0.0 mm 0.00 in0.0 mm
09:15 PM 46.2°F7.9°C 33.5°F0.8°C 61% 8.1 mph NE13.0 kmh NE 11.5 mph18.5 kmh 29.56 in1001.0 mb - 0.00 in0.0 mm 0.00 in0.0 mm
09:20 PM 46.2°F7.9°C 33.5°F0.8°C 61% 8.1 mph ENE13.0 kmh ENE 10.4 mph16.7 kmh 29.56 in1001.0 mb - 0.00 in0.0 mm 0.00 in0.0 mm
09:25 PM 46.2°F7.9°C 33.5°F0.8°C 61% 10.4 mph E16.7 kmh E 13.8 mph22.2 kmh 29.56 in1001.0 mb - 0.00 in0.0 mm 0.00 in0.0 mm
09:30 PM 46.2°F7.9°C 33.9°F1.1°C 62% 9.2 mph NE14.8 kmh NE 11.5 mph18.5 kmh 29.53 in1000.0 mb - 0.00 in0.0 mm 0.00 in0.0 mm
09:35 PM 46.2°F7.9°C 33.9°F1.1°C 62% 9.2 mph NE14.8 kmh NE 10.4 mph16.7 kmh 29.53 in1000.0 mb - 0.00 in0.0 mm 0.00 in0.0 mm
09:40 PM 46.2°F7.9°C 33.9°F1.1°C 62% 8.1 mph NE13.0 kmh NE 12.7 mph20.4 kmh 29.53 in1000.0 mb - 0.00 in0.0 mm 0.00 in0.0 mm
09:45 PM 46.2°F7.9°C 33.9°F1.1°C 62% 6.9 mph NE11.1 kmh NE 11.5 mph18.5 kmh 29.56 in1001.0 mb - 0.00 in0.0 mm 0.00 in0.0 mm
09:50 PM 46.0°F7.8°C 33.7°F0.9°C 62% 9.2 mph NE14.8 kmh NE 11.5 mph18.5 kmh 29.56 in1001.0 mb - 0.00 in0.0 mm 0.00 in0.0 mm
09:55 PM 46.0°F7.8°C 33.7°F0.9°C 62% 8.1 mph NE13.0 kmh NE 10.4 mph16.7 kmh 29.56 in1001.0 mb - 0.00 in0.0 mm 0.00 in0.0 mm
10:00 PM 46.0°F7.8°C 33.7°F0.9°C 62% 6.9 mph NE11.1 kmh NE 6.9 mph11.1 kmh 29.56 in1001.0 mb - 0.00 in0.0 mm 0.00 in0.0 mm
10:10 PM 45.9°F7.7°C 33.6°F0.9°C 62% 6.9 mph NE11.1 kmh NE 10.4 mph16.7 kmh 29.56 in1001.0 mb - 0.00 in0.0 mm 0.00 in0.0 mm
10:15 PM 45.9°F7.7°C 33.6°F0.9°C 62% 6.9 mph NE11.1 kmh NE 8.1 mph13.0 kmh 29.56 in1001.0 mb - 0.00 in0.0 mm 0.00 in0.0 mm
10:20 PM 45.7°F7.6°C 33.4°F0.8°C 62% 8.1 mph NNE13.0 kmh NNE 9.2 mph14.8 kmh 29.56 in1001.0 mb - 0.00 in0.0 mm 0.00 in0.0 mm
10:25 PM 45.7°F7.6°C 33.4°F0.8°C 62% 5.8 mph NE9.3 kmh NE 8.1 mph13.0 kmh 29.56 in1001.0 mb - 0.00 in0.0 mm 0.00 in0.0 mm
10:30 PM 45.5°F7.5°C 33.2°F0.7°C 62% 5.8 mph NE9.3 kmh NE 8.1 mph13.0 kmh 29.56 in1001.0 mb - 0.00 in0.0 mm 0.00 in0.0 mm
10:35 PM 45.3°F7.4°C 33.1°F0.6°C 62% 5.8 mph NE9.3 kmh NE 6.9 mph11.1 kmh 29.56 in1001.0 mb - 0.00 in0.0 mm 0.00 in0.0 mm
10:40 PM 45.0°F7.2°C 32.3°F0.2°C 61% 5.8 mph NNE9.3 kmh NNE 9.2 mph14.8 kmh 29.56 in1001.0 mb - 0.00 in0.0 mm 0.00 in0.0 mm
10:45 PM 44.8°F7.1°C 32.1°F0.1°C 61% 6.9 mph NE11.1 kmh NE 6.9 mph11.1 kmh 29.56 in1001.0 mb - 0.00 in0.0 mm 0.00 in0.0 mm
10:50 PM 44.6°F7.0°C 32.0°F0.0°C 61% 5.8 mph NNE9.3 kmh NNE 6.9 mph11.1 kmh 29.56 in1001.0 mb - 0.00 in0.0 mm 0.00 in0.0 mm
10:55 PM 44.4°F6.9°C 32.2°F0.1°C 62% 5.8 mph NE9.3 kmh NE 8.1 mph13.0 kmh 29.56 in1001.0 mb - 0.00 in0.0 mm 0.00 in0.0 mm
11:00 PM 44.4°F6.9°C 32.2°F0.1°C 62% 5.8 mph NE9.3 kmh NE 6.9 mph11.1 kmh 29.53 in1000.0 mb - 0.00 in0.0 mm 0.00 in0.0 mm
11:10 PM 44.8°F7.1°C 32.5°F0.3°C 62% 5.8 mph NNE9.3 kmh NNE 8.1 mph13.0 kmh 29.53 in1000.0 mb - 0.00 in0.0 mm 0.00 in0.0 mm
11:15 PM 44.6°F7.0°C 32.4°F0.2°C 62% 5.8 mph NE9.3 kmh NE 5.8 mph9.3 kmh 29.53 in1000.0 mb - 0.00 in0.0 mm 0.00 in0.0 mm
11:20 PM 44.2°F6.8°C 32.0°F0.0°C 62% 5.8 mph NE9.3 kmh NE 8.1 mph13.0 kmh 29.53 in1000.0 mb - 0.00 in0.0 mm 0.00 in0.0 mm
11:25 PM 44.2°F6.8°C 32.0°F0.0°C 62% 6.9 mph NE11.1 kmh NE 10.4 mph16.7 kmh 29.53 in1000.0 mb - 0.00 in0.0 mm 0.00 in0.0 mm
11:30 PM 44.4°F6.9°C 32.2°F0.1°C 62% 6.9 mph NE11.1 kmh NE 9.2 mph14.8 kmh 29.53 in1000.0 mb - 0.00 in0.0 mm 0.00 in0.0 mm
11:35 PM 44.4°F6.9°C 32.2°F0.1°C 62% 5.8 mph NNE9.3 kmh NNE 8.1 mph13.0 kmh 29.53 in1000.0 mb - 0.00 in0.0 mm 0.00 in0.0 mm
11:40 PM 44.4°F6.9°C 32.6°F0.3°C 63% 8.1 mph NE13.0 kmh NE 8.1 mph13.0 kmh 29.53 in1000.0 mb - 0.00 in0.0 mm 0.00 in0.0 mm
11:45 PM 44.6°F7.0°C 32.4°F0.2°C 62% 8.1 mph NNE13.0 kmh NNE 10.4 mph16.7 kmh 29.50 in999.0 mb - 0.00 in0.0 mm 0.00 in0.0 mm
11:50 PM 44.6°F7.0°C 32.4°F0.2°C 62% 9.2 mph NE14.8 kmh NE 11.5 mph18.5 kmh 29.50 in999.0 mb - 0.00 in0.0 mm 0.00 in0.0 mm
11:55 PM 44.8°F7.1°C 32.9°F0.5°C 63% 8.1 mph NE13.0 kmh NE 11.5 mph18.5 kmh 29.50 in999.0 mb - 0.00 in0.0 mm 0.00 in0.0 mm